sensor_id;sensor_type;location;lat;lon;timestamp;P1;durP1;ratioP1;P2;durP2;ratioP2
12660;SDS011;39039;51.802;5.710;2023-02-12T00:00:13;40.70;;;36.53;;
12660;SDS011;39039;51.802;5.710;2023-02-12T00:02:40;37.00;;;33.27;;
12660;SDS011;39039;51.802;5.710;2023-02-12T00:05:07;38.57;;;34.63;;
12660;SDS011;39039;51.802;5.710;2023-02-12T00:07:34;38.83;;;34.93;;
12660;SDS011;39039;51.802;5.710;2023-02-12T00:10:03;38.43;;;34.73;;
12660;SDS011;39039;51.802;5.710;2023-02-12T00:12:30;39.27;;;35.40;;
12660;SDS011;39039;51.802;5.710;2023-02-12T00:14:57;38.63;;;34.93;;
12660;SDS011;39039;51.802;5.710;2023-02-12T00:17:24;37.80;;;33.73;;
12660;SDS011;39039;51.802;5.710;2023-02-12T00:19:51;39.20;;;35.37;;
12660;SDS011;39039;51.802;5.710;2023-02-12T00:22:18;42.00;;;37.97;;
12660;SDS011;39039;51.802;5.710;2023-02-12T00:24:45;38.27;;;34.43;;
12660;SDS011;39039;51.802;5.710;2023-02-12T00:27:13;37.87;;;33.87;;
12660;SDS011;39039;51.802;5.710;2023-02-12T00:29:40;38.43;;;34.37;;
12660;SDS011;39039;51.802;5.710;2023-02-12T00:32:07;39.57;;;35.60;;
12660;SDS011;39039;51.802;5.710;2023-02-12T00:34:34;38.53;;;34.70;;
12660;SDS011;39039;51.802;5.710;2023-02-12T00:37:01;39.20;;;35.27;;
12660;SDS011;39039;51.802;5.710;2023-02-12T00:39:29;38.73;;;34.93;;
12660;SDS011;39039;51.802;5.710;2023-02-12T00:41:56;39.43;;;35.57;;
12660;SDS011;39039;51.802;5.710;2023-02-12T00:44:24;41.23;;;37.33;;
12660;SDS011;39039;51.802;5.710;2023-02-12T00:46:51;42.63;;;38.33;;
12660;SDS011;39039;51.802;5.710;2023-02-12T00:49:18;38.67;;;34.87;;
12660;SDS011;39039;51.802;5.710;2023-02-12T00:51:45;37.63;;;33.77;;
12660;SDS011;39039;51.802;5.710;2023-02-12T00:54:12;40.17;;;35.93;;
12660;SDS011;39039;51.802;5.710;2023-02-12T00:56:39;39.17;;;34.67;;
12660;SDS011;39039;51.802;5.710;2023-02-12T00:59:06;40.83;;;36.53;;
12660;SDS011;39039;51.802;5.710;2023-02-12T01:01:35;41.23;;;36.90;;
12660;SDS011;39039;51.802;5.710;2023-02-12T01:04:02;42.60;;;38.30;;
12660;SDS011;39039;51.802;5.710;2023-02-12T01:06:29;39.80;;;35.80;;
12660;SDS011;39039;51.802;5.710;2023-02-12T01:08:56;42.83;;;38.67;;
12660;SDS011;39039;51.802;5.710;2023-02-12T01:11:23;40.67;;;36.30;;
12660;SDS011;39039;51.802;5.710;2023-02-12T01:13:50;42.17;;;37.93;;
12660;SDS011;39039;51.802;5.710;2023-02-12T01:16:18;41.50;;;37.30;;
12660;SDS011;39039;51.802;5.710;2023-02-12T01:18:50;41.97;;;37.87;;
12660;SDS011;39039;51.802;5.710;2023-02-12T01:21:18;41.87;;;37.77;;
12660;SDS011;39039;51.802;5.710;2023-02-12T01:23:46;41.13;;;36.90;;
12660;SDS011;39039;51.802;5.710;2023-02-12T01:26:13;41.23;;;37.43;;
12660;SDS011;39039;51.802;5.710;2023-02-12T01:28:41;41.87;;;37.87;;
12660;SDS011;39039;51.802;5.710;2023-02-12T01:31:10;41.03;;;36.90;;
12660;SDS011;39039;51.802;5.710;2023-02-12T01:33:37;38.33;;;34.40;;
12660;SDS011;39039;51.802;5.710;2023-02-12T01:36:06;44.13;;;39.47;;
12660;SDS011;39039;51.802;5.710;2023-02-12T01:38:34;40.73;;;36.67;;
12660;SDS011;39039;51.802;5.710;2023-02-12T01:41:01;41.90;;;37.70;;
12660;SDS011;39039;51.802;5.710;2023-02-12T01:43:29;44.97;;;40.57;;
12660;SDS011;39039;51.802;5.710;2023-02-12T01:45:57;42.57;;;38.27;;
12660;SDS011;39039;51.802;5.710;2023-02-12T01:48:26;46.47;;;41.60;;
12660;SDS011;39039;51.802;5.710;2023-02-12T01:50:54;45.67;;;39.33;;
12660;SDS011;39039;51.802;5.710;2023-02-12T01:53:24;46.07;;;41.77;;
12660;SDS011;39039;51.802;5.710;2023-02-12T01:55:57;46.93;;;42.23;;
12660;SDS011;39039;51.802;5.710;2023-02-12T01:58:27;45.50;;;40.93;;
12660;SDS011;39039;51.802;5.710;2023-02-12T02:00:59;44.87;;;40.10;;
12660;SDS011;39039;51.802;5.710;2023-02-12T02:03:27;43.97;;;39.80;;
12660;SDS011;39039;51.802;5.710;2023-02-12T02:05:55;43.90;;;39.60;;
12660;SDS011;39039;51.802;5.710;2023-02-12T02:08:27;44.63;;;40.10;;
12660;SDS011;39039;51.802;5.710;2023-02-12T02:10:54;44.23;;;40.10;;
12660;SDS011;39039;51.802;5.710;2023-02-12T02:13:21;42.87;;;38.67;;
12660;SDS011;39039;51.802;5.710;2023-02-12T02:16:09;43.97;;;39.57;;
12660;SDS011;39039;51.802;5.710;2023-02-12T02:18:43;44.37;;;39.87;;
12660;SDS011;39039;51.802;5.710;2023-02-12T02:21:25;45.70;;;41.23;;
12660;SDS011;39039;51.802;5.710;2023-02-12T02:24:21;42.97;;;38.53;;
12660;SDS011;39039;51.802;5.710;2023-02-12T02:27:15;46.17;;;40.80;;
12660;SDS011;39039;51.802;5.710;2023-02-12T02:33:02;42.17;;;38.07;;
12660;SDS011;39039;51.802;5.710;2023-02-12T02:35:50;41.70;;;37.40;;
12660;SDS011;39039;51.802;5.710;2023-02-12T02:38:22;39.77;;;35.67;;
12660;SDS011;39039;51.802;5.710;2023-02-12T02:40:55;42.50;;;37.93;;
12660;SDS011;39039;51.802;5.710;2023-02-12T02:43:28;42.07;;;37.83;;
12660;SDS011;39039;51.802;5.710;2023-02-12T02:46:00;41.90;;;37.67;;
12660;SDS011;39039;51.802;5.710;2023-02-12T02:48:33;43.87;;;39.30;;
12660;SDS011;39039;51.802;5.710;2023-02-12T02:51:03;48.03;;;40.83;;
12660;SDS011;39039;51.802;5.710;2023-02-12T02:53:34;45.63;;;40.90;;
12660;SDS011;39039;51.802;5.710;2023-02-12T02:56:05;46.50;;;41.50;;
12660;SDS011;39039;51.802;5.710;2023-02-12T02:58:34;45.80;;;41.10;;
12660;SDS011;39039;51.802;5.710;2023-02-12T03:01:05;45.67;;;40.77;;
12660;SDS011;39039;51.802;5.710;2023-02-12T03:03:37;47.77;;;42.83;;
12660;SDS011;39039;51.802;5.710;2023-02-12T03:06:08;43.50;;;39.13;;
12660;SDS011;39039;51.802;5.710;2023-02-12T03:08:39;42.60;;;38.07;;
12660;SDS011;39039;51.802;5.710;2023-02-12T03:11:13;41.40;;;36.93;;
12660;SDS011;39039;51.802;5.710;2023-02-12T03:13:44;43.73;;;39.20;;
12660;SDS011;39039;51.802;5.710;2023-02-12T03:16:15;41.40;;;37.43;;
12660;SDS011;39039;51.802;5.710;2023-02-12T03:18:49;45.40;;;40.83;;
12660;SDS011;39039;51.802;5.710;2023-02-12T03:21:21;47.60;;;43.07;;
12660;SDS011;39039;51.802;5.710;2023-02-12T03:23:56;43.07;;;38.43;;
12660;SDS011;39039;51.802;5.710;2023-02-12T03:26:33;46.27;;;41.53;;
12660;SDS011;39039;51.802;5.710;2023-02-12T03:29:07;43.63;;;39.17;;
12660;SDS011;39039;51.802;5.710;2023-02-12T03:31:35;43.47;;;38.83;;
12660;SDS011;39039;51.802;5.710;2023-02-12T03:34:10;43.17;;;38.60;;
12660;SDS011;39039;51.802;5.710;2023-02-12T03:36:44;39.70;;;35.63;;
12660;SDS011;39039;51.802;5.710;2023-02-12T03:39:19;40.10;;;36.03;;
12660;SDS011;39039;51.802;5.710;2023-02-12T03:41:54;40.90;;;36.73;;
12660;SDS011;39039;51.802;5.710;2023-02-12T03:44:27;41.13;;;36.83;;
12660;SDS011;39039;51.802;5.710;2023-02-12T03:47:08;40.57;;;36.07;;
12660;SDS011;39039;51.802;5.710;2023-02-12T03:49:45;41.30;;;36.87;;
12660;SDS011;39039;51.802;5.710;2023-02-12T03:52:18;42.67;;;38.37;;
12660;SDS011;39039;51.802;5.710;2023-02-12T03:54:45;44.53;;;40.37;;
12660;SDS011;39039;51.802;5.710;2023-02-12T03:57:13;45.13;;;40.83;;
12660;SDS011;39039;51.802;5.710;2023-02-12T03:59:44;48.23;;;43.60;;
12660;SDS011;39039;51.802;5.710;2023-02-12T04:02:11;41.53;;;37.33;;
12660;SDS011;39039;51.802;5.710;2023-02-12T04:04:38;44.10;;;39.97;;
12660;SDS011;39039;51.802;5.710;2023-02-12T04:07:07;47.30;;;42.63;;
12660;SDS011;39039;51.802;5.710;2023-02-12T04:09:33;41.07;;;37.17;;
12660;SDS011;39039;51.802;5.710;2023-02-12T04:12:04;43.53;;;39.37;;
12660;SDS011;39039;51.802;5.710;2023-02-12T04:14:42;42.47;;;38.33;;
12660;SDS011;39039;51.802;5.710;2023-02-12T04:17:18;38.17;;;34.57;;
12660;SDS011;39039;51.802;5.710;2023-02-12T04:19:54;41.07;;;37.17;;
12660;SDS011;39039;51.802;5.710;2023-02-12T04:22:34;43.10;;;38.80;;
12660;SDS011;39039;51.802;5.710;2023-02-12T04:25:14;40.30;;;36.30;;
12660;SDS011;39039;51.802;5.710;2023-02-12T04:27:47;38.53;;;34.73;;
12660;SDS011;39039;51.802;5.710;2023-02-12T04:30:20;36.73;;;33.03;;
12660;SDS011;39039;51.802;5.710;2023-02-12T04:32:50;38.50;;;34.83;;
12660;SDS011;39039;51.802;5.710;2023-02-12T04:35:21;36.67;;;33.37;;
12660;SDS011;39039;51.802;5.710;2023-02-12T04:37:57;36.40;;;32.70;;
12660;SDS011;39039;51.802;5.710;2023-02-12T04:40:28;39.37;;;35.47;;
12660;SDS011;39039;51.802;5.710;2023-02-12T04:42:55;41.37;;;37.43;;
12660;SDS011;39039;51.802;5.710;2023-02-12T04:45:23;40.00;;;36.17;;
12660;SDS011;39039;51.802;5.710;2023-02-12T04:47:51;43.30;;;39.33;;
12660;SDS011;39039;51.802;5.710;2023-02-12T04:50:18;44.63;;;40.63;;
12660;SDS011;39039;51.802;5.710;2023-02-12T04:52:46;41.20;;;37.40;;
12660;SDS011;39039;51.802;5.710;2023-02-12T04:55:14;39.33;;;35.73;;
12660;SDS011;39039;51.802;5.710;2023-02-12T04:57:41;39.83;;;36.30;;
12660;SDS011;39039;51.802;5.710;2023-02-12T05:00:10;40.30;;;36.37;;
12660;SDS011;39039;51.802;5.710;2023-02-12T05:02:38;39.30;;;35.97;;
12660;SDS011;39039;51.802;5.710;2023-02-12T05:05:06;42.80;;;38.90;;
12660;SDS011;39039;51.802;5.710;2023-02-12T05:07:33;42.20;;;38.50;;
12660;SDS011;39039;51.802;5.710;2023-02-12T05:10:00;41.40;;;37.60;;
12660;SDS011;39039;51.802;5.710;2023-02-12T05:12:28;40.17;;;36.70;;
12660;SDS011;39039;51.802;5.710;2023-02-12T05:14:56;40.67;;;37.17;;
12660;SDS011;39039;51.802;5.710;2023-02-12T05:17:23;38.83;;;35.23;;
12660;SDS011;39039;51.802;5.710;2023-02-12T05:19:50;36.20;;;32.77;;
12660;SDS011;39039;51.802;5.710;2023-02-12T05:22:17;38.47;;;34.80;;
12660;SDS011;39039;51.802;5.710;2023-02-12T05:24:44;40.97;;;37.10;;
12660;SDS011;39039;51.802;5.710;2023-02-12T05:27:11;39.17;;;35.50;;
12660;SDS011;39039;51.802;5.710;2023-02-12T05:29:39;39.97;;;36.17;;
12660;SDS011;39039;51.802;5.710;2023-02-12T05:32:07;37.37;;;33.87;;
12660;SDS011;39039;51.802;5.710;2023-02-12T05:34:34;38.63;;;35.23;;
12660;SDS011;39039;51.802;5.710;2023-02-12T05:37:01;40.23;;;36.50;;
12660;SDS011;39039;51.802;5.710;2023-02-12T05:39:28;38.97;;;35.40;;
12660;SDS011;39039;51.802;5.710;2023-02-12T05:41:55;39.50;;;35.90;;
12660;SDS011;39039;51.802;5.710;2023-02-12T05:44:22;39.70;;;35.93;;
12660;SDS011;39039;51.802;5.710;2023-02-12T05:46:50;40.63;;;36.93;;
12660;SDS011;39039;51.802;5.710;2023-02-12T05:49:17;40.80;;;37.03;;
12660;SDS011;39039;51.802;5.710;2023-02-12T05:51:44;40.90;;;37.10;;
12660;SDS011;39039;51.802;5.710;2023-02-12T05:54:11;38.53;;;35.07;;
12660;SDS011;39039;51.802;5.710;2023-02-12T05:56:41;40.77;;;37.17;;
12660;SDS011;39039;51.802;5.710;2023-02-12T05:59:11;40.97;;;37.17;;
12660;SDS011;39039;51.802;5.710;2023-02-12T06:01:39;42.67;;;38.67;;
12660;SDS011;39039;51.802;5.710;2023-02-12T06:04:10;41.60;;;37.70;;
12660;SDS011;39039;51.802;5.710;2023-02-12T06:06:40;40.07;;;36.27;;
12660;SDS011;39039;51.802;5.710;2023-02-12T06:09:07;41.47;;;37.50;;
12660;SDS011;39039;51.802;5.710;2023-02-12T06:11:34;43.77;;;39.53;;
12660;SDS011;39039;51.802;5.710;2023-02-12T06:14:01;42.97;;;39.07;;
12660;SDS011;39039;51.802;5.710;2023-02-12T06:16:28;43.00;;;38.90;;
12660;SDS011;39039;51.802;5.710;2023-02-12T06:18:56;42.50;;;38.40;;
12660;SDS011;39039;51.802;5.710;2023-02-12T06:21:25;44.03;;;39.57;;
12660;SDS011;39039;51.802;5.710;2023-02-12T06:23:52;44.63;;;40.43;;
12660;SDS011;39039;51.802;5.710;2023-02-12T06:26:19;41.63;;;37.73;;
12660;SDS011;39039;51.802;5.710;2023-02-12T06:28:46;43.60;;;39.73;;
12660;SDS011;39039;51.802;5.710;2023-02-12T06:31:17;42.33;;;37.93;;
12660;SDS011;39039;51.802;5.710;2023-02-12T06:33:44;40.97;;;37.10;;
12660;SDS011;39039;51.802;5.710;2023-02-12T06:36:11;42.10;;;38.07;;
12660;SDS011;39039;51.802;5.710;2023-02-12T06:38:40;42.20;;;38.20;;
12660;SDS011;39039;51.802;5.710;2023-02-12T06:41:07;43.13;;;38.73;;
12660;SDS011;39039;51.802;5.710;2023-02-12T06:43:34;43.27;;;39.10;;
12660;SDS011;39039;51.802;5.710;2023-02-12T06:46:01;42.53;;;38.63;;
12660;SDS011;39039;51.802;5.710;2023-02-12T06:48:29;42.47;;;38.53;;
12660;SDS011;39039;51.802;5.710;2023-02-12T06:51:02;41.50;;;37.43;;
12660;SDS011;39039;51.802;5.710;2023-02-12T06:53:29;41.87;;;37.63;;
12660;SDS011;39039;51.802;5.710;2023-02-12T06:55:58;43.20;;;39.27;;
12660;SDS011;39039;51.802;5.710;2023-02-12T06:58:25;42.10;;;37.93;;
12660;SDS011;39039;51.802;5.710;2023-02-12T07:00:53;42.97;;;38.90;;
12660;SDS011;39039;51.802;5.710;2023-02-12T07:03:20;42.70;;;38.57;;
12660;SDS011;39039;51.802;5.710;2023-02-12T07:05:47;42.53;;;38.37;;
12660;SDS011;39039;51.802;5.710;2023-02-12T07:08:14;45.47;;;41.23;;
12660;SDS011;39039;51.802;5.710;2023-02-12T07:10:41;43.07;;;38.97;;
12660;SDS011;39039;51.802;5.710;2023-02-12T07:13:09;43.27;;;39.20;;
12660;SDS011;39039;51.802;5.710;2023-02-12T07:15:37;44.23;;;40.07;;
12660;SDS011;39039;51.802;5.710;2023-02-12T07:18:05;44.00;;;39.80;;
12660;SDS011;39039;51.802;5.710;2023-02-12T07:20:32;43.23;;;39.07;;
12660;SDS011;39039;51.802;5.710;2023-02-12T07:22:59;42.70;;;38.80;;
12660;SDS011;39039;51.802;5.710;2023-02-12T07:25:26;43.93;;;39.83;;
12660;SDS011;39039;51.802;5.710;2023-02-12T07:27:53;44.93;;;40.73;;
12660;SDS011;39039;51.802;5.710;2023-02-12T07:30:21;43.17;;;38.93;;
12660;SDS011;39039;51.802;5.710;2023-02-12T07:32:48;44.40;;;40.30;;
12660;SDS011;39039;51.802;5.710;2023-02-12T07:35:15;44.40;;;40.10;;
12660;SDS011;39039;51.802;5.710;2023-02-12T07:37:42;41.10;;;37.00;;
12660;SDS011;39039;51.802;5.710;2023-02-12T07:40:10;39.20;;;35.17;;
12660;SDS011;39039;51.802;5.710;2023-02-12T07:42:38;38.40;;;34.50;;
12660;SDS011;39039;51.802;5.710;2023-02-12T07:45:05;41.90;;;37.60;;
12660;SDS011;39039;51.802;5.710;2023-02-12T07:47:34;38.93;;;35.17;;
12660;SDS011;39039;51.802;5.710;2023-02-12T07:50:02;42.90;;;38.73;;
12660;SDS011;39039;51.802;5.710;2023-02-12T07:52:31;42.90;;;38.80;;
12660;SDS011;39039;51.802;5.710;2023-02-12T07:54:58;44.70;;;40.40;;
12660;SDS011;39039;51.802;5.710;2023-02-12T07:57:25;46.50;;;41.97;;
12660;SDS011;39039;51.802;5.710;2023-02-12T07:59:52;47.37;;;42.77;;
12660;SDS011;39039;51.802;5.710;2023-02-12T08:02:18;47.57;;;43.20;;
12660;SDS011;39039;51.802;5.710;2023-02-12T08:04:47;44.40;;;40.27;;
12660;SDS011;39039;51.802;5.710;2023-02-12T08:07:14;43.07;;;38.87;;
12660;SDS011;39039;51.802;5.710;2023-02-12T08:09:42;45.43;;;41.17;;
12660;SDS011;39039;51.802;5.710;2023-02-12T08:12:09;45.33;;;40.47;;
12660;SDS011;39039;51.802;5.710;2023-02-12T08:14:36;43.47;;;38.97;;
12660;SDS011;39039;51.802;5.710;2023-02-12T08:17:03;45.20;;;40.67;;
12660;SDS011;39039;51.802;5.710;2023-02-12T08:19:30;44.97;;;40.50;;
12660;SDS011;39039;51.802;5.710;2023-02-12T08:21:59;41.77;;;37.37;;
12660;SDS011;39039;51.802;5.710;2023-02-12T08:24:27;40.57;;;36.30;;
12660;SDS011;39039;51.802;5.710;2023-02-12T08:26:54;44.43;;;35.17;;
12660;SDS011;39039;51.802;5.710;2023-02-12T08:29:22;38.93;;;34.77;;
12660;SDS011;39039;51.802;5.710;2023-02-12T08:31:50;40.23;;;36.13;;
12660;SDS011;39039;51.802;5.710;2023-02-12T08:34:22;39.83;;;35.73;;
12660;SDS011;39039;51.802;5.710;2023-02-12T08:36:50;40.30;;;36.10;;
12660;SDS011;39039;51.802;5.710;2023-02-12T08:39:19;41.63;;;37.17;;
12660;SDS011;39039;51.802;5.710;2023-02-12T08:41:46;42.23;;;37.70;;
12660;SDS011;39039;51.802;5.710;2023-02-12T08:44:13;39.50;;;35.37;;
12660;SDS011;39039;51.802;5.710;2023-02-12T08:46:42;40.10;;;36.17;;
12660;SDS011;39039;51.802;5.710;2023-02-12T08:49:11;41.93;;;37.63;;
12660;SDS011;39039;51.802;5.710;2023-02-12T08:51:39;38.40;;;34.50;;
12660;SDS011;39039;51.802;5.710;2023-02-12T08:54:10;40.83;;;36.63;;
12660;SDS011;39039;51.802;5.710;2023-02-12T08:56:39;39.47;;;35.27;;
12660;SDS011;39039;51.802;5.710;2023-02-12T08:59:07;40.20;;;36.00;;
12660;SDS011;39039;51.802;5.710;2023-02-12T09:01:35;39.13;;;35.30;;
12660;SDS011;39039;51.802;5.710;2023-02-12T09:04:05;41.03;;;36.83;;
12660;SDS011;39039;51.802;5.710;2023-02-12T09:06:33;38.83;;;34.73;;
12660;SDS011;39039;51.802;5.710;2023-02-12T09:09:01;38.30;;;34.30;;
12660;SDS011;39039;51.802;5.710;2023-02-12T09:11:28;39.57;;;35.57;;
12660;SDS011;39039;51.802;5.710;2023-02-12T09:13:57;39.10;;;35.10;;
12660;SDS011;39039;51.802;5.710;2023-02-12T09:16:25;39.13;;;35.30;;
12660;SDS011;39039;51.802;5.710;2023-02-12T09:18:52;40.93;;;37.00;;
12660;SDS011;39039;51.802;5.710;2023-02-12T09:21:20;41.80;;;37.60;;
12660;SDS011;39039;51.802;5.710;2023-02-12T09:23:47;40.40;;;36.53;;
12660;SDS011;39039;51.802;5.710;2023-02-12T09:26:15;39.27;;;35.03;;
12660;SDS011;39039;51.802;5.710;2023-02-12T09:28:42;40.47;;;36.23;;
12660;SDS011;39039;51.802;5.710;2023-02-12T09:31:11;38.87;;;35.00;;
12660;SDS011;39039;51.802;5.710;2023-02-12T09:33:39;39.27;;;35.10;;
12660;SDS011;39039;51.802;5.710;2023-02-12T09:36:08;39.27;;;35.13;;
12660;SDS011;39039;51.802;5.710;2023-02-12T09:38:35;41.10;;;36.73;;
12660;SDS011;39039;51.802;5.710;2023-02-12T09:41:12;42.23;;;37.87;;
12660;SDS011;39039;51.802;5.710;2023-02-12T09:43:57;39.13;;;35.13;;
12660;SDS011;39039;51.802;5.710;2023-02-12T09:46:28;38.87;;;34.97;;
12660;SDS011;39039;51.802;5.710;2023-02-12T09:48:59;36.83;;;33.17;;
12660;SDS011;39039;51.802;5.710;2023-02-12T09:51:29;38.60;;;34.73;;
12660;SDS011;39039;51.802;5.710;2023-02-12T09:53:59;38.83;;;34.80;;
12660;SDS011;39039;51.802;5.710;2023-02-12T09:56:27;38.87;;;34.97;;
12660;SDS011;39039;51.802;5.710;2023-02-12T09:58:55;39.13;;;35.07;;
12660;SDS011;39039;51.802;5.710;2023-02-12T10:01:25;39.77;;;35.77;;
12660;SDS011;39039;51.802;5.710;2023-02-12T10:03:54;39.90;;;35.83;;
12660;SDS011;39039;51.802;5.710;2023-02-12T10:06:24;41.07;;;37.03;;
12660;SDS011;39039;51.802;5.710;2023-02-12T10:09:05;37.83;;;33.97;;
12660;SDS011;39039;51.802;5.710;2023-02-12T10:11:39;37.03;;;33.23;;
12660;SDS011;39039;51.802;5.710;2023-02-12T10:14:28;40.53;;;36.43;;
12660;SDS011;39039;51.802;5.710;2023-02-12T10:17:07;43.13;;;38.63;;
12660;SDS011;39039;51.802;5.710;2023-02-12T10:19:47;40.80;;;36.57;;
12660;SDS011;39039;51.802;5.710;2023-02-12T10:22:17;39.00;;;34.80;;
12660;SDS011;39039;51.802;5.710;2023-02-12T10:24:56;40.27;;;36.27;;
12660;SDS011;39039;51.802;5.710;2023-02-12T10:27:40;40.70;;;36.70;;
12660;SDS011;39039;51.802;5.710;2023-02-12T10:30:13;40.63;;;36.63;;
12660;SDS011;39039;51.802;5.710;2023-02-12T10:32:45;38.93;;;34.87;;
12660;SDS011;39039;51.802;5.710;2023-02-12T10:35:14;38.77;;;34.67;;
12660;SDS011;39039;51.802;5.710;2023-02-12T10:37:44;40.77;;;36.77;;
12660;SDS011;39039;51.802;5.710;2023-02-12T10:40:16;45.07;;;40.57;;
12660;SDS011;39039;51.802;5.710;2023-02-12T10:42:45;46.87;;;42.60;;
12660;SDS011;39039;51.802;5.710;2023-02-12T10:45:15;55.13;;;50.40;;
12660;SDS011;39039;51.802;5.710;2023-02-12T10:47:44;46.27;;;42.00;;
12660;SDS011;39039;51.802;5.710;2023-02-12T10:50:25;42.87;;;38.53;;
12660;SDS011;39039;51.802;5.710;2023-02-12T10:53:00;42.10;;;37.90;;
12660;SDS011;39039;51.802;5.710;2023-02-12T10:55:29;43.90;;;39.70;;
12660;SDS011;39039;51.802;5.710;2023-02-12T10:57:57;40.73;;;36.67;;
12660;SDS011;39039;51.802;5.710;2023-02-12T11:00:26;43.43;;;39.23;;
12660;SDS011;39039;51.802;5.710;2023-02-12T11:03:01;40.00;;;36.07;;
12660;SDS011;39039;51.802;5.710;2023-02-12T11:05:32;42.13;;;37.73;;
12660;SDS011;39039;51.802;5.710;2023-02-12T11:08:00;44.17;;;39.53;;
12660;SDS011;39039;51.802;5.710;2023-02-12T11:10:28;45.03;;;39.80;;
12660;SDS011;39039;51.802;5.710;2023-02-12T11:12:56;48.00;;;41.53;;
12660;SDS011;39039;51.802;5.710;2023-02-12T11:15:24;50.53;;;41.77;;
12660;SDS011;39039;51.802;5.710;2023-02-12T11:17:55;43.53;;;37.87;;
12660;SDS011;39039;51.802;5.710;2023-02-12T11:20:25;41.33;;;36.93;;
12660;SDS011;39039;51.802;5.710;2023-02-12T11:22:55;37.17;;;33.37;;
12660;SDS011;39039;51.802;5.710;2023-02-12T11:25:24;36.80;;;33.00;;
12660;SDS011;39039;51.802;5.710;2023-02-12T11:27:58;36.43;;;32.63;;
12660;SDS011;39039;51.802;5.710;2023-02-12T11:30:27;38.03;;;34.20;;
12660;SDS011;39039;51.802;5.710;2023-02-12T11:32:54;35.73;;;32.00;;
12660;SDS011;39039;51.802;5.710;2023-02-12T11:35:42;35.23;;;31.63;;
12660;SDS011;39039;51.802;5.710;2023-02-12T11:38:16;36.57;;;32.73;;
12660;SDS011;39039;51.802;5.710;2023-02-12T11:40:47;36.47;;;32.70;;
12660;SDS011;39039;51.802;5.710;2023-02-12T11:43:21;35.90;;;32.07;;
12660;SDS011;39039;51.802;5.710;2023-02-12T11:45:49;36.33;;;32.53;;
12660;SDS011;39039;51.802;5.710;2023-02-12T11:48:21;36.93;;;33.33;;
12660;SDS011;39039;51.802;5.710;2023-02-12T11:50:51;35.53;;;32.03;;
12660;SDS011;39039;51.802;5.710;2023-02-12T11:53:22;37.13;;;33.20;;
12660;SDS011;39039;51.802;5.710;2023-02-12T11:55:52;39.93;;;36.17;;
12660;SDS011;39039;51.802;5.710;2023-02-12T11:58:23;36.03;;;32.30;;
12660;SDS011;39039;51.802;5.710;2023-02-12T12:00:52;36.70;;;33.23;;
12660;SDS011;39039;51.802;5.710;2023-02-12T12:03:25;34.73;;;31.27;;
12660;SDS011;39039;51.802;5.710;2023-02-12T12:05:55;37.97;;;34.37;;
12660;SDS011;39039;51.802;5.710;2023-02-12T12:08:30;42.00;;;37.83;;
12660;SDS011;39039;51.802;5.710;2023-02-12T12:11:04;47.60;;;43.37;;
12660;SDS011;39039;51.802;5.710;2023-02-12T12:13:37;45.80;;;41.57;;
12660;SDS011;39039;51.802;5.710;2023-02-12T12:16:12;44.43;;;40.53;;
12660;SDS011;39039;51.802;5.710;2023-02-12T12:19:03;40.70;;;36.73;;
12660;SDS011;39039;51.802;5.710;2023-02-12T12:21:54;46.47;;;42.27;;
12660;SDS011;39039;51.802;5.710;2023-02-12T12:24:30;47.13;;;42.73;;
12660;SDS011;39039;51.802;5.710;2023-02-12T12:27:06;42.20;;;38.30;;
12660;SDS011;39039;51.802;5.710;2023-02-12T12:29:59;37.80;;;33.70;;
12660;SDS011;39039;51.802;5.710;2023-02-12T12:32:33;41.03;;;36.70;;
12660;SDS011;39039;51.802;5.710;2023-02-12T12:35:02;38.90;;;34.90;;
12660;SDS011;39039;51.802;5.710;2023-02-12T12:37:31;39.77;;;35.97;;
12660;SDS011;39039;51.802;5.710;2023-02-12T12:40:19;45.33;;;41.27;;
12660;SDS011;39039;51.802;5.710;2023-02-12T12:43:02;42.10;;;38.10;;
12660;SDS011;39039;51.802;5.710;2023-02-12T12:45:41;47.23;;;42.87;;
12660;SDS011;39039;51.802;5.710;2023-02-12T12:48:28;51.80;;;47.33;;
12660;SDS011;39039;51.802;5.710;2023-02-12T12:51:07;49.03;;;44.73;;
12660;SDS011;39039;51.802;5.710;2023-02-12T12:53:49;50.20;;;45.70;;
12660;SDS011;39039;51.802;5.710;2023-02-12T12:56:40;49.60;;;45.63;;
12660;SDS011;39039;51.802;5.710;2023-02-12T13:02:18;41.47;;;37.37;;
12660;SDS011;39039;51.802;5.710;2023-02-12T13:05:18;44.63;;;40.67;;
12660;SDS011;39039;51.802;5.710;2023-02-12T13:08:05;37.70;;;33.90;;
12660;SDS011;39039;51.802;5.710;2023-02-12T13:10:38;40.03;;;36.23;;
12660;SDS011;39039;51.802;5.710;2023-02-12T13:13:16;41.57;;;37.70;;
12660;SDS011;39039;51.802;5.710;2023-02-12T13:15:54;35.63;;;32.07;;
12660;SDS011;39039;51.802;5.710;2023-02-12T13:18:30;41.70;;;37.90;;
12660;SDS011;39039;51.802;5.710;2023-02-12T13:21:07;45.77;;;41.97;;
12660;SDS011;39039;51.802;5.710;2023-02-12T13:23:40;52.47;;;48.17;;
12660;SDS011;39039;51.802;5.710;2023-02-12T13:26:13;54.50;;;50.03;;
12660;SDS011;39039;51.802;5.710;2023-02-12T13:28:46;33.50;;;30.33;;
12660;SDS011;39039;51.802;5.710;2023-02-12T13:31:19;35.77;;;32.33;;
12660;SDS011;39039;51.802;5.710;2023-02-12T13:33:49;51.10;;;46.70;;
12660;SDS011;39039;51.802;5.710;2023-02-12T13:36:19;45.40;;;41.37;;
12660;SDS011;39039;51.802;5.710;2023-02-12T13:38:49;51.53;;;47.57;;
12660;SDS011;39039;51.802;5.710;2023-02-12T13:41:21;44.70;;;41.13;;
12660;SDS011;39039;51.802;5.710;2023-02-12T13:43:53;48.70;;;44.83;;
12660;SDS011;39039;51.802;5.710;2023-02-12T13:46:33;40.57;;;37.20;;
12660;SDS011;39039;51.802;5.710;2023-02-12T13:49:16;30.47;;;27.27;;
12660;SDS011;39039;51.802;5.710;2023-02-12T13:51:50;29.27;;;26.37;;
12660;SDS011;39039;51.802;5.710;2023-02-12T13:54:26;30.43;;;27.50;;
12660;SDS011;39039;51.802;5.710;2023-02-12T13:57:06;30.53;;;27.60;;
12660;SDS011;39039;51.802;5.710;2023-02-12T13:59:42;30.70;;;27.70;;
12660;SDS011;39039;51.802;5.710;2023-02-12T14:05:22;29.57;;;26.57;;
12660;SDS011;39039;51.802;5.710;2023-02-12T14:07:52;31.30;;;28.00;;
12660;SDS011;39039;51.802;5.710;2023-02-12T14:10:21;32.47;;;29.27;;
12660;SDS011;39039;51.802;5.710;2023-02-12T14:12:51;29.80;;;26.90;;
12660;SDS011;39039;51.802;5.710;2023-02-12T14:15:27;31.63;;;28.63;;
12660;SDS011;39039;51.802;5.710;2023-02-12T14:18:03;32.13;;;29.13;;
12660;SDS011;39039;51.802;5.710;2023-02-12T14:20:33;30.00;;;27.27;;
12660;SDS011;39039;51.802;5.710;2023-02-12T14:23:03;33.63;;;30.27;;
12660;SDS011;39039;51.802;5.710;2023-02-12T14:25:56;31.70;;;28.67;;
12660;SDS011;39039;51.802;5.710;2023-02-12T14:28:30;34.37;;;31.27;;
12660;SDS011;39039;51.802;5.710;2023-02-12T14:31:21;32.60;;;29.57;;
12660;SDS011;39039;51.802;5.710;2023-02-12T14:37:31;30.87;;;27.77;;
12660;SDS011;39039;51.802;5.710;2023-02-12T14:42:56;30.03;;;26.93;;
12660;SDS011;39039;51.802;5.710;2023-02-12T14:45:26;31.17;;;28.17;;
12660;SDS011;39039;51.802;5.710;2023-02-12T14:47:58;30.73;;;27.83;;
12660;SDS011;39039;51.802;5.710;2023-02-12T14:50:29;33.03;;;29.53;;
12660;SDS011;39039;51.802;5.710;2023-02-12T14:53:06;32.73;;;29.63;;
12660;SDS011;39039;51.802;5.710;2023-02-12T14:55:52;31.77;;;28.67;;
12660;SDS011;39039;51.802;5.710;2023-02-12T14:58:21;31.93;;;28.93;;